createdAt,value
2017-08-28T00:01:55.756Z,0
2017-08-28T00:02:36.337Z,0
2017-08-28T00:03:16.920Z,0
2017-08-28T00:03:57.506Z,0
2017-08-28T00:04:38.073Z,0
2017-08-28T00:05:18.654Z,0
2017-08-28T00:05:59.245Z,0
2017-08-28T00:06:39.814Z,0
2017-08-28T00:07:20.397Z,0
2017-08-28T00:08:00.989Z,0
2017-08-28T00:08:41.552Z,0
2017-08-28T00:09:22.121Z,0
2017-08-28T00:10:02.693Z,0
2017-08-28T00:10:43.264Z,0
2017-08-28T00:11:23.871Z,0
2017-08-28T00:12:04.442Z,0
2017-08-28T00:12:45.025Z,0
2017-08-28T00:13:25.598Z,0
2017-08-28T00:14:06.174Z,0
2017-08-28T00:14:46.751Z,0
2017-08-28T00:15:27.303Z,0
2017-08-28T00:16:07.864Z,0
2017-08-28T00:16:48.436Z,0
2017-08-28T00:17:29.037Z,0
2017-08-28T00:18:09.592Z,0
2017-08-28T00:18:50.154Z,0
2017-08-28T00:19:30.718Z,0
2017-08-28T00:20:11.275Z,0
2017-08-28T00:20:51.830Z,0
2017-08-28T00:21:32.398Z,0
2017-08-28T00:22:12.991Z,0
2017-08-28T00:22:53.525Z,0
2017-08-28T00:23:34.102Z,0
2017-08-28T00:24:14.657Z,0
2017-08-28T00:24:55.228Z,0
2017-08-28T00:25:35.824Z,0
2017-08-28T00:26:16.356Z,0
2017-08-28T00:26:56.935Z,0
2017-08-28T00:27:37.470Z,0
2017-08-28T00:29:50.407Z,0
2017-08-28T00:30:30.985Z,0
2017-08-28T00:31:11.572Z,0
2017-08-28T00:31:52.131Z,0
2017-08-28T00:32:32.687Z,0
2017-08-28T00:33:13.257Z,0
2017-08-28T00:33:53.832Z,0
2017-08-28T00:34:34.368Z,0
2017-08-28T00:35:14.948Z,0
2017-08-28T00:35:55.484Z,0
2017-08-28T00:36:36.043Z,0
2017-08-28T00:37:16.620Z,0
2017-08-28T00:37:57.186Z,0
2017-08-28T00:38:37.733Z,0
2017-08-28T00:39:18.278Z,0
2017-08-28T00:39:58.846Z,0
2017-08-28T00:40:39.376Z,0
2017-08-28T00:41:20.017Z,0
2017-08-28T00:42:00.568Z,0
2017-08-28T00:42:41.137Z,0
2017-08-28T00:43:21.701Z,0
2017-08-28T00:44:02.273Z,0
2017-08-28T00:44:42.838Z,0
2017-08-28T00:45:23.424Z,0
2017-08-28T00:46:03.939Z,0
2017-08-28T00:46:44.487Z,0
2017-08-28T00:47:25.051Z,0
2017-08-28T00:48:05.626Z,0
2017-08-28T00:48:46.198Z,0
2017-08-28T00:49:26.772Z,0
2017-08-28T00:50:07.349Z,0
2017-08-28T00:50:47.910Z,0
2017-08-28T00:51:28.481Z,0
2017-08-28T00:52:09.051Z,0
2017-08-28T00:52:49.620Z,0
2017-08-28T00:53:30.181Z,0
2017-08-28T00:54:10.745Z,0
2017-08-28T00:54:51.286Z,0
2017-08-28T00:55:31.844Z,0
2017-08-28T00:56:12.427Z,0
2017-08-28T00:56:53.001Z,0
2017-08-28T00:57:33.569Z,0
2017-08-28T00:58:14.150Z,0
2017-08-28T00:58:54.736Z,0
2017-08-28T00:59:35.322Z,0
2017-08-28T01:00:15.909Z,0
2017-08-28T01:00:56.500Z,0
2017-08-28T01:01:37.080Z,0
2017-08-28T01:02:17.645Z,0
2017-08-28T01:02:58.224Z,0
2017-08-28T01:03:38.783Z,0
2017-08-28T01:04:19.362Z,0
2017-08-28T01:04:59.948Z,0
2017-08-28T01:05:40.528Z,0
2017-08-28T01:06:21.119Z,0
2017-08-28T01:07:01.707Z,0
2017-08-28T01:07:42.284Z,0
2017-08-28T01:08:22.847Z,0
2017-08-28T01:09:03.427Z,0
2017-08-28T01:09:44.003Z,0
2017-08-28T01:10:24.578Z,0
2017-08-28T01:11:05.154Z,0
2017-08-28T01:11:45.728Z,0
2017-08-28T01:12:26.312Z,0
2017-08-28T01:13:06.898Z,0
2017-08-28T01:13:47.471Z,0
2017-08-28T01:14:34.753Z,0
2017-08-28T01:15:15.331Z,0
2017-08-28T01:15:55.903Z,0
2017-08-28T01:16:36.489Z,0
2017-08-28T01:17:17.064Z,0
2017-08-28T01:17:57.634Z,0
2017-08-28T01:18:38.234Z,0
2017-08-28T01:19:18.784Z,0
2017-08-28T01:19:59.350Z,0
2017-08-28T01:20:39.932Z,0
2017-08-28T01:21:20.498Z,0
2017-08-28T01:22:01.097Z,0
2017-08-28T01:22:41.661Z,0
2017-08-28T01:23:22.225Z,0
2017-08-28T01:24:02.794Z,0
2017-08-28T01:24:43.388Z,0
2017-08-28T01:25:23.962Z,0
2017-08-28T01:26:04.543Z,0
2017-08-28T01:26:45.126Z,0
2017-08-28T01:27:25.710Z,0
2017-08-28T01:28:06.276Z,0
2017-08-28T01:28:46.852Z,0
2017-08-28T01:29:27.439Z,0
2017-08-28T01:30:08.000Z,0
2017-08-28T01:30:48.585Z,0
2017-08-28T01:31:29.226Z,0
2017-08-28T01:32:09.826Z,0
2017-08-28T01:32:50.393Z,0
2017-08-28T01:33:30.958Z,0
2017-08-28T01:34:11.527Z,0
2017-08-28T01:34:52.112Z,0
2017-08-28T01:35:32.687Z,0
2017-08-28T01:36:13.264Z,0
2017-08-28T01:36:53.847Z,0
2017-08-28T01:37:34.414Z,0
2017-08-28T01:38:15.013Z,0
2017-08-28T01:38:55.582Z,0
2017-08-28T01:39:36.171Z,0
2017-08-28T01:40:16.739Z,0
2017-08-28T01:42:34.713Z,0
2017-08-28T01:43:15.301Z,0
2017-08-28T01:43:55.875Z,0
2017-08-28T01:44:36.439Z,0
2017-08-28T01:45:17.002Z,0
2017-08-28T01:45:57.585Z,0
2017-08-28T01:46:38.167Z,0
2017-08-28T01:47:18.744Z,0
2017-08-28T01:47:59.327Z,0
2017-08-28T01:48:39.890Z,0
2017-08-28T01:49:20.471Z,0
2017-08-28T01:50:01.024Z,0
2017-08-28T01:50:41.602Z,0
2017-08-28T01:51:22.197Z,0
2017-08-28T01:52:02.766Z,0
2017-08-28T01:52:43.345Z,0
2017-08-28T01:53:23.917Z,0
2017-08-28T01:54:04.492Z,0
2017-08-28T01:54:45.072Z,0
2017-08-28T01:55:25.636Z,0
2017-08-28T01:56:06.212Z,0
2017-08-28T01:56:46.800Z,0
2017-08-28T01:57:27.370Z,0
2017-08-28T01:58:07.947Z,0
2017-08-28T01:58:48.520Z,0
2017-08-28T01:59:29.097Z,0
2017-08-28T02:00:09.686Z,0
2017-08-28T02:00:50.268Z,0
2017-08-28T02:01:30.831Z,0
2017-08-28T02:02:11.419Z,0
2017-08-28T02:02:52.004Z,0
2017-08-28T02:03:32.580Z,0
2017-08-28T02:04:13.165Z,0
2017-08-28T02:04:53.767Z,0
2017-08-28T02:05:34.321Z,0
2017-08-28T02:06:14.893Z,0
2017-08-28T02:06:55.461Z,0
2017-08-28T02:07:36.035Z,0
2017-08-28T02:08:16.618Z,0
2017-08-28T02:08:57.187Z,0
2017-08-28T02:09:37.762Z,0
2017-08-28T02:10:18.336Z,0
2017-08-28T02:10:58.915Z,0
2017-08-28T02:11:39.494Z,0
2017-08-28T02:12:20.114Z,0
2017-08-28T02:13:00.690Z,0
2017-08-28T02:13:41.266Z,0
2017-08-28T02:14:21.850Z,0
2017-08-28T02:15:02.447Z,0
2017-08-28T02:15:43.033Z,0
2017-08-28T02:16:23.587Z,0
2017-08-28T02:17:04.173Z,0
2017-08-28T02:17:44.742Z,0
2017-08-28T02:18:25.326Z,0
2017-08-28T02:19:05.898Z,0
2017-08-28T02:19:46.491Z,0
2017-08-28T02:20:27.058Z,0
2017-08-28T02:21:07.633Z,0
2017-08-28T02:21:48.211Z,0
2017-08-28T02:22:28.781Z,0
2017-08-28T02:23:09.451Z,0
2017-08-28T02:23:50.022Z,0
2017-08-28T02:24:30.502Z,0
2017-08-28T02:25:11.096Z,0
2017-08-28T02:25:51.675Z,0
2017-08-28T02:26:32.275Z,0
2017-08-28T02:27:12.810Z,0
2017-08-28T02:27:53.424Z,0
2017-08-28T02:28:34.153Z,0
2017-08-28T02:29:14.651Z,0
2017-08-28T02:29:55.119Z,0
2017-08-28T02:30:35.732Z,0
2017-08-28T02:31:16.297Z,0
2017-08-28T02:31:56.825Z,0
2017-08-28T02:32:37.391Z,0
2017-08-28T02:33:18.002Z,0
2017-08-28T02:33:58.580Z,0
2017-08-28T02:34:39.146Z,0
2017-08-28T02:35:19.718Z,0
2017-08-28T02:36:00.279Z,0
2017-08-28T02:36:40.844Z,0
2017-08-28T02:37:21.419Z,0
2017-08-28T02:38:01.985Z,0
2017-08-28T02:38:42.555Z,0
2017-08-28T02:39:23.128Z,0
2017-08-28T02:40:03.698Z,0
2017-08-28T02:40:44.288Z,0
2017-08-28T02:41:24.829Z,0
2017-08-28T02:42:05.426Z,0
2017-08-28T02:42:45.974Z,0
2017-08-28T02:43:26.545Z,0
2017-08-28T02:44:07.131Z,0
2017-08-28T02:44:47.698Z,0
2017-08-28T02:45:28.303Z,0
2017-08-28T02:46:08.824Z,0
2017-08-28T02:46:49.371Z,0
2017-08-28T02:47:29.939Z,0
2017-08-28T02:48:10.523Z,0
2017-08-28T02:48:53.725Z,0
2017-08-28T02:49:34.298Z,0
2017-08-28T02:50:14.860Z,0
2017-08-28T02:53:01.078Z,0
2017-08-28T02:53:41.647Z,0
2017-08-28T02:54:22.214Z,0
2017-08-28T02:55:02.812Z,0
2017-08-28T02:55:43.387Z,0
2017-08-28T02:56:23.960Z,0
2017-08-28T02:57:04.537Z,0
2017-08-28T02:57:45.122Z,0
2017-08-28T02:58:25.699Z,0
2017-08-28T02:59:06.275Z,0
2017-08-28T02:59:46.898Z,0
2017-08-28T03:00:27.459Z,0
2017-08-28T03:01:08.000Z,0
2017-08-28T03:01:48.571Z,0
2017-08-28T03:02:29.146Z,0
2017-08-28T03:03:09.713Z,0
2017-08-28T03:03:50.275Z,0
2017-08-28T03:04:30.884Z,0
2017-08-28T03:05:11.415Z,0
2017-08-28T03:05:51.991Z,0
2017-08-28T03:06:32.557Z,0
2017-08-28T03:07:14.947Z,0
2017-08-28T03:07:55.500Z,0
2017-08-28T03:08:36.072Z,0
2017-08-28T03:09:16.646Z,0
2017-08-28T03:09:57.262Z,0
2017-08-28T03:10:37.813Z,0
2017-08-28T03:11:18.394Z,0
2017-08-28T03:11:58.959Z,0
2017-08-28T03:12:39.524Z,0
2017-08-28T03:13:20.098Z,0
2017-08-28T03:14:00.674Z,0
2017-08-28T03:14:41.289Z,0
2017-08-28T03:15:21.865Z,0
2017-08-28T03:16:02.451Z,0
2017-08-28T03:16:43.029Z,0
2017-08-28T03:17:23.714Z,0
2017-08-28T03:18:04.288Z,0
2017-08-28T03:18:44.859Z,0
2017-08-28T03:19:25.447Z,0
2017-08-28T03:20:06.245Z,0
2017-08-28T03:20:46.738Z,0
2017-08-28T03:21:27.599Z,0
2017-08-28T03:22:08.323Z,0
2017-08-28T03:22:48.929Z,0
2017-08-28T03:23:29.496Z,0
2017-08-28T03:24:10.084Z,0
2017-08-28T03:24:50.656Z,0
2017-08-28T03:25:31.224Z,0
2017-08-28T03:26:11.804Z,0
2017-08-28T03:26:52.481Z,0
2017-08-28T03:27:33.047Z,0
2017-08-28T03:28:13.633Z,0
2017-08-28T03:28:54.585Z,0
2017-08-28T03:29:35.140Z,0
2017-08-28T03:30:15.723Z,0
2017-08-28T03:30:56.477Z,0
2017-08-28T03:31:37.049Z,0
2017-08-28T03:32:17.616Z,0
2017-08-28T03:32:58.206Z,0
2017-08-28T03:33:38.945Z,0
2017-08-28T03:34:19.769Z,0
2017-08-28T03:35:00.324Z,0
2017-08-28T03:35:40.960Z,0
2017-08-28T03:36:21.537Z,0
2017-08-28T03:37:02.307Z,0
2017-08-28T03:37:43.162Z,0
2017-08-28T03:38:23.891Z,0
2017-08-28T03:39:04.727Z,0
2017-08-28T03:39:45.455Z,0
2017-08-28T03:40:26.169Z,0
2017-08-28T03:41:06.911Z,0
2017-08-28T03:41:47.601Z,0
2017-08-28T03:42:28.150Z,0
2017-08-28T03:43:08.750Z,0
2017-08-28T03:43:49.401Z,0
2017-08-28T03:44:30.074Z,0
2017-08-28T03:45:10.841Z,0
2017-08-28T03:45:51.451Z,0
2017-08-28T03:46:32.245Z,0
2017-08-28T03:47:13.105Z,0
2017-08-28T03:47:53.564Z,0
2017-08-28T03:48:34.111Z,0
2017-08-28T03:49:14.704Z,0
2017-08-28T03:49:55.289Z,0
2017-08-28T03:50:35.801Z,0
2017-08-28T03:51:16.387Z,0
2017-08-28T03:51:56.957Z,0
2017-08-28T03:52:37.543Z,0
2017-08-28T03:53:18.133Z,0
2017-08-28T03:53:58.708Z,0
2017-08-28T03:54:39.292Z,0
2017-08-28T03:55:19.868Z,0
2017-08-28T03:56:00.443Z,0
2017-08-28T03:56:41.017Z,0
2017-08-28T03:57:21.593Z,0
2017-08-28T03:58:02.160Z,0
2017-08-28T03:58:42.736Z,0
2017-08-28T03:59:37.966Z,0
2017-08-28T04:00:18.541Z,0
2017-08-28T04:00:59.106Z,0
2017-08-28T04:01:39.677Z,0
2017-08-28T04:02:20.252Z,0
2017-08-28T04:03:00.819Z,0
2017-08-28T04:03:41.389Z,0
2017-08-28T04:04:21.971Z,0
2017-08-28T04:05:02.543Z,0
2017-08-28T04:05:43.132Z,0
2017-08-28T04:06:23.716Z,0
2017-08-28T04:07:04.305Z,0
2017-08-28T04:07:44.888Z,0
2017-08-28T04:08:25.471Z,0
2017-08-28T04:09:06.056Z,5
2017-08-28T04:09:46.634Z,5
2017-08-28T04:10:27.215Z,5
2017-08-28T04:11:07.787Z,5
2017-08-28T04:11:48.362Z,5
2017-08-28T04:12:28.945Z,5
2017-08-28T04:13:09.525Z,5
2017-08-28T04:13:50.084Z,5
2017-08-28T04:14:30.652Z,5
2017-08-28T04:15:11.212Z,10
2017-08-28T04:16:06.471Z,10
2017-08-28T04:16:47.057Z,10
2017-08-28T04:17:27.629Z,10
2017-08-28T04:18:08.194Z,10
2017-08-28T04:18:48.778Z,10
2017-08-28T04:19:29.378Z,15
2017-08-28T04:20:09.935Z,15
2017-08-28T04:20:50.514Z,15
2017-08-28T04:21:31.098Z,15
2017-08-28T04:22:11.679Z,15
2017-08-28T04:22:52.254Z,15
2017-08-28T04:23:32.824Z,15
2017-08-28T04:24:13.413Z,15
2017-08-28T04:24:53.987Z,15
2017-08-28T04:25:34.575Z,15
2017-08-28T04:26:15.152Z,15
2017-08-28T04:26:55.729Z,15
2017-08-28T04:27:36.312Z,15
2017-08-28T04:28:16.892Z,15
2017-08-28T04:28:57.477Z,15
2017-08-28T04:29:38.064Z,15
2017-08-28T04:30:18.637Z,15
2017-08-28T04:30:59.219Z,20
2017-08-28T04:31:39.801Z,20
2017-08-28T04:32:20.393Z,20
2017-08-28T04:33:00.981Z,25
2017-08-28T04:33:41.562Z,25
2017-08-28T04:34:22.128Z,30
2017-08-28T04:35:02.713Z,30
2017-08-28T04:35:43.299Z,30
2017-08-28T04:36:23.879Z,30
2017-08-28T04:37:04.463Z,30
2017-08-28T04:37:45.036Z,35
2017-08-28T04:38:25.620Z,35
2017-08-28T04:39:06.183Z,35
2017-08-28T04:39:46.767Z,35
2017-08-28T04:40:27.337Z,35
2017-08-28T04:41:07.916Z,40
2017-08-28T04:41:48.500Z,40
2017-08-28T04:42:29.086Z,40
2017-08-28T04:43:09.668Z,45
2017-08-28T04:43:50.248Z,45
2017-08-28T04:44:30.826Z,45
2017-08-28T04:45:11.400Z,45
2017-08-28T04:45:51.978Z,50
2017-08-28T04:46:32.569Z,50
2017-08-28T04:47:13.160Z,50
2017-08-28T04:47:53.730Z,55
2017-08-28T04:48:34.315Z,55
2017-08-28T04:49:14.918Z,55
2017-08-28T04:49:55.503Z,55
2017-08-28T04:50:36.082Z,60
2017-08-28T04:51:16.666Z,60
2017-08-28T04:51:57.239Z,60
2017-08-28T04:52:37.820Z,65
2017-08-28T04:53:18.403Z,65
2017-08-28T04:53:58.989Z,65
2017-08-28T04:54:39.559Z,65
2017-08-28T04:55:20.132Z,70
2017-08-28T04:56:00.707Z,70
2017-08-28T04:56:41.292Z,75
2017-08-28T04:57:21.873Z,80
2017-08-28T04:58:02.459Z,85
2017-08-28T04:58:43.049Z,90
2017-08-28T04:59:23.622Z,95
2017-08-28T05:00:04.197Z,95
2017-08-28T05:00:44.775Z,100
2017-08-28T05:01:25.346Z,100
2017-08-28T05:02:05.929Z,100
2017-08-28T05:02:46.518Z,100
2017-08-28T05:03:27.097Z,105
2017-08-28T05:04:07.673Z,105
2017-08-28T05:04:48.262Z,110
2017-08-28T05:05:28.836Z,110
2017-08-28T05:06:09.407Z,115
2017-08-28T05:06:49.989Z,120
2017-08-28T05:07:30.574Z,120
2017-08-28T05:08:11.153Z,120
2017-08-28T05:08:51.740Z,125
2017-08-28T05:09:32.330Z,125
2017-08-28T05:10:12.904Z,130
2017-08-28T05:10:53.487Z,130
2017-08-28T05:11:34.074Z,135
2017-08-28T05:12:14.661Z,140
2017-08-28T05:12:55.258Z,140
2017-08-28T05:13:35.822Z,140
2017-08-28T05:14:16.411Z,140
2017-08-28T05:14:56.988Z,135
2017-08-28T05:15:37.577Z,130
2017-08-28T05:16:30.954Z,130
2017-08-28T05:17:11.536Z,125
2017-08-28T05:17:52.111Z,125
2017-08-28T05:18:32.685Z,125
2017-08-28T05:19:13.260Z,130
2017-08-28T05:19:53.840Z,130
2017-08-28T05:20:34.428Z,135
2017-08-28T05:21:15.011Z,135
2017-08-28T05:21:55.590Z,135
2017-08-28T05:22:36.166Z,145
2017-08-28T05:23:16.740Z,145
2017-08-28T05:23:57.324Z,140
2017-08-28T05:24:37.910Z,145
2017-08-28T05:25:18.466Z,155
2017-08-28T05:25:59.046Z,160
2017-08-28T05:26:39.627Z,170
2017-08-28T05:27:20.203Z,180
2017-08-28T05:28:00.775Z,185
2017-08-28T05:28:41.351Z,190
2017-08-28T05:29:21.934Z,195
2017-08-28T05:30:02.513Z,195
2017-08-28T05:30:43.089Z,200
2017-08-28T05:31:23.667Z,205
2017-08-28T05:32:04.249Z,205
2017-08-28T05:32:44.834Z,210
2017-08-28T05:33:25.421Z,215
2017-08-28T05:34:06.000Z,220
2017-08-28T05:34:46.599Z,225
2017-08-28T05:35:27.163Z,230
2017-08-28T05:36:07.738Z,235
2017-08-28T05:36:48.317Z,235
2017-08-28T05:37:28.892Z,235
2017-08-28T05:38:09.466Z,230
2017-08-28T05:38:50.059Z,230
2017-08-28T05:39:30.631Z,230
2017-08-28T05:40:11.221Z,225
2017-08-28T05:40:51.806Z,225
2017-08-28T05:41:32.402Z,235
2017-08-28T05:42:12.981Z,245
2017-08-28T05:42:53.565Z,255
2017-08-28T05:43:34.152Z,255
2017-08-28T05:44:14.732Z,265
2017-08-28T05:44:55.316Z,285
2017-08-28T05:45:35.894Z,315
2017-08-28T05:46:16.488Z,335
2017-08-28T05:46:57.078Z,355
2017-08-28T05:47:37.663Z,375
2017-08-28T05:48:18.243Z,395
2017-08-28T05:48:58.831Z,425
2017-08-28T05:49:39.411Z,435
2017-08-28T05:50:19.998Z,445
2017-08-28T05:51:00.580Z,445
2017-08-28T05:51:41.168Z,440
2017-08-28T05:52:21.747Z,420
2017-08-28T05:53:02.326Z,395
2017-08-28T05:53:42.898Z,375
2017-08-28T05:56:00.866Z,285
2017-08-28T05:56:41.447Z,270
2017-08-28T05:57:22.028Z,260
2017-08-28T05:58:02.609Z,250
2017-08-28T05:58:43.445Z,255
2017-08-28T05:59:24.021Z,245
2017-08-28T06:00:04.594Z,235
2017-08-28T06:00:45.174Z,225
2017-08-28T06:01:25.753Z,210
2017-08-28T06:02:06.342Z,195
2017-08-28T06:02:46.919Z,190
2017-08-28T06:03:27.495Z,170
2017-08-28T06:04:08.088Z,150
2017-08-28T06:04:48.640Z,135
2017-08-28T06:05:29.223Z,125
2017-08-28T06:06:09.808Z,115
2017-08-28T06:06:50.386Z,110
2017-08-28T06:07:30.972Z,105
2017-08-28T06:08:11.558Z,95
2017-08-28T06:08:52.141Z,90
2017-08-28T06:09:32.728Z,85
2017-08-28T06:10:13.311Z,85
2017-08-28T06:10:53.884Z,80
2017-08-28T06:11:34.469Z,75
2017-08-28T06:12:15.061Z,75
2017-08-28T06:12:55.646Z,65
2017-08-28T06:13:36.228Z,60
2017-08-28T06:14:16.812Z,55
2017-08-28T06:14:57.388Z,55
2017-08-28T06:15:37.977Z,55
2017-08-28T06:16:18.560Z,55
2017-08-28T06:16:59.139Z,55
2017-08-28T06:17:39.713Z,55
2017-08-28T06:18:20.297Z,50
2017-08-28T06:19:00.884Z,50
2017-08-28T06:19:41.454Z,45
2017-08-28T06:20:22.034Z,40
2017-08-28T06:21:02.603Z,40
2017-08-28T06:21:43.194Z,35
2017-08-28T06:22:23.779Z,40
2017-08-28T06:23:04.368Z,40
2017-08-28T06:23:44.959Z,40
2017-08-28T06:24:25.533Z,40
2017-08-28T06:25:06.124Z,45
2017-08-28T06:25:46.705Z,45
2017-08-28T06:26:27.290Z,45
2017-08-28T06:27:07.867Z,50
2017-08-28T06:27:48.445Z,50
2017-08-28T06:28:29.024Z,45
2017-08-28T06:29:09.610Z,50
2017-08-28T06:29:50.203Z,65
2017-08-28T06:30:30.783Z,55
2017-08-28T06:31:11.361Z,50
2017-08-28T06:31:51.939Z,50
2017-08-28T06:32:32.506Z,55
2017-08-28T06:33:13.084Z,50
2017-08-28T06:33:53.660Z,50
2017-08-28T06:34:34.249Z,50
2017-08-28T06:35:14.829Z,50
2017-08-28T06:35:55.439Z,45
2017-08-28T06:36:35.973Z,45
2017-08-28T06:37:16.552Z,45
2017-08-28T06:37:57.127Z,50
2017-08-28T06:38:37.702Z,55
2017-08-28T06:39:18.278Z,55
2017-08-28T06:39:58.847Z,60
2017-08-28T06:40:39.431Z,70
2017-08-28T06:41:19.994Z,75
2017-08-28T06:42:00.575Z,105
2017-08-28T06:42:41.157Z,120
2017-08-28T06:43:21.740Z,135
2017-08-28T06:45:54.946Z,185
2017-08-28T06:46:35.528Z,185
2017-08-28T06:47:16.110Z,180
2017-08-28T06:47:56.697Z,170
2017-08-28T06:48:37.273Z,165
2017-08-28T06:49:17.863Z,160
2017-08-28T06:49:58.424Z,155
2017-08-28T06:50:39.006Z,150
2017-08-28T06:51:19.587Z,145
2017-08-28T06:52:00.175Z,135
2017-08-28T06:52:40.757Z,130
2017-08-28T06:53:21.335Z,120
2017-08-28T06:54:01.908Z,110
2017-08-28T06:54:42.483Z,105
2017-08-28T06:55:23.062Z,100
2017-08-28T06:56:03.646Z,95
2017-08-28T06:56:44.206Z,95
2017-08-28T06:57:24.779Z,95
2017-08-28T06:58:05.356Z,95
2017-08-28T06:58:45.942Z,95
2017-08-28T06:59:26.522Z,90
2017-08-28T07:00:07.101Z,85
2017-08-28T07:00:47.676Z,85
2017-08-28T07:01:28.259Z,80
2017-08-28T07:02:08.849Z,80
2017-08-28T07:02:49.429Z,80
2017-08-28T07:03:29.996Z,80
2017-08-28T07:04:10.583Z,85
2017-08-28T07:04:51.159Z,90
2017-08-28T07:05:31.742Z,90
2017-08-28T07:06:12.327Z,100
2017-08-28T07:06:52.909Z,110
2017-08-28T07:07:33.483Z,115
2017-08-28T07:08:14.058Z,120
2017-08-28T07:08:54.638Z,135
2017-08-28T07:09:35.212Z,155
2017-08-28T07:10:15.795Z,175
2017-08-28T07:10:56.380Z,185
2017-08-28T07:11:36.967Z,190
2017-08-28T07:12:17.550Z,200
2017-08-28T07:13:00.349Z,200
2017-08-28T07:13:40.928Z,195
2017-08-28T07:14:21.521Z,185
2017-08-28T07:15:02.102Z,175
2017-08-28T07:15:57.603Z,160
2017-08-28T07:16:38.185Z,145
2017-08-28T07:17:20.609Z,135
2017-08-28T07:18:01.190Z,120
2017-08-28T07:18:41.778Z,115
2017-08-28T07:19:22.360Z,105
2017-08-28T07:20:02.944Z,95
2017-08-28T07:20:43.519Z,90
2017-08-28T07:21:24.111Z,85
2017-08-28T07:22:04.693Z,80
2017-08-28T07:22:45.346Z,70
2017-08-28T07:23:26.603Z,65
2017-08-28T07:24:07.189Z,60
2017-08-28T07:24:47.757Z,50
2017-08-28T07:25:28.343Z,45
2017-08-28T07:26:08.923Z,40
2017-08-28T07:26:49.500Z,40
2017-08-28T07:27:30.079Z,40
2017-08-28T07:28:10.648Z,40
2017-08-28T07:28:51.233Z,45
2017-08-28T07:29:31.803Z,45
2017-08-28T07:30:13.090Z,50
2017-08-28T07:30:53.667Z,50
2017-08-28T07:31:34.295Z,50
2017-08-28T07:32:15.454Z,55
2017-08-28T07:32:56.032Z,60
2017-08-28T07:33:36.619Z,60
2017-08-28T07:34:17.214Z,60
2017-08-28T07:34:59.684Z,60
2017-08-28T07:35:40.239Z,55
2017-08-28T07:36:22.744Z,45
2017-08-28T07:37:03.336Z,45
2017-08-28T07:37:43.924Z,35
2017-08-28T07:38:24.506Z,35
2017-08-28T07:39:05.081Z,40
2017-08-28T07:39:45.663Z,40
2017-08-28T07:42:23.966Z,60
2017-08-28T07:43:04.539Z,65
2017-08-28T07:43:45.132Z,75
2017-08-28T07:44:25.709Z,80
2017-08-28T07:45:06.295Z,80
2017-08-28T07:45:46.853Z,80
2017-08-28T07:46:27.419Z,90
2017-08-28T07:47:08.014Z,100
2017-08-28T07:47:48.586Z,110
2017-08-28T07:48:29.166Z,115
2017-08-28T07:49:09.755Z,120
2017-08-28T07:49:50.344Z,115
2017-08-28T07:50:30.946Z,105
2017-08-28T07:51:11.517Z,95
2017-08-28T07:51:52.091Z,85
2017-08-28T07:52:32.673Z,80
2017-08-28T07:53:13.243Z,75
2017-08-28T07:53:53.818Z,75
2017-08-28T07:54:34.396Z,70
2017-08-28T07:55:14.967Z,65
2017-08-28T07:55:55.545Z,60
2017-08-28T07:56:36.133Z,65
2017-08-28T07:57:16.713Z,75
2017-08-28T07:57:57.299Z,80
2017-08-28T07:58:37.882Z,75
2017-08-28T07:59:18.474Z,70
2017-08-28T07:59:59.056Z,75
2017-08-28T08:00:39.633Z,85
2017-08-28T08:01:20.212Z,100
2017-08-28T08:02:00.791Z,115
2017-08-28T08:02:41.361Z,125
2017-08-28T08:03:21.950Z,145
2017-08-28T08:04:02.528Z,165
2017-08-28T08:04:43.099Z,185
2017-08-28T08:05:23.675Z,205
2017-08-28T08:06:04.256Z,230
2017-08-28T08:06:44.832Z,255
2017-08-28T08:07:25.394Z,280
2017-08-28T08:08:05.964Z,305
2017-08-28T08:08:46.541Z,345
2017-08-28T08:09:27.116Z,380
2017-08-28T08:10:07.696Z,420
2017-08-28T08:10:48.277Z,450
2017-08-28T08:11:28.854Z,460
2017-08-28T08:12:09.438Z,440
2017-08-28T08:12:50.024Z,415
2017-08-28T08:13:30.597Z,380
2017-08-28T08:14:11.170Z,350
2017-08-28T08:14:51.728Z,315
2017-08-28T08:15:32.319Z,280
2017-08-28T08:16:12.877Z,245
2017-08-28T08:16:53.453Z,215
2017-08-28T08:17:34.027Z,185
2017-08-28T08:18:14.601Z,160
2017-08-28T08:18:55.173Z,140
2017-08-28T08:19:35.755Z,130
2017-08-28T08:20:16.325Z,120
2017-08-28T08:20:56.902Z,120
2017-08-28T08:21:37.472Z,120
2017-08-28T08:22:18.038Z,120
2017-08-28T08:22:58.602Z,135
2017-08-28T08:23:39.170Z,170
2017-08-28T08:24:19.741Z,220
2017-08-28T08:25:00.330Z,260
2017-08-28T08:25:40.902Z,310
2017-08-28T08:26:21.483Z,350
2017-08-28T08:27:02.066Z,400
2017-08-28T08:27:42.692Z,455
2017-08-28T08:28:23.231Z,510
2017-08-28T08:29:03.755Z,560
2017-08-28T08:29:44.305Z,620
2017-08-28T08:30:24.878Z,660
2017-08-28T08:31:05.429Z,680
2017-08-28T08:31:45.966Z,720
2017-08-28T08:32:26.527Z,830
2017-08-28T08:33:07.077Z,1100
2017-08-28T08:33:47.630Z,1660
2017-08-28T08:34:28.201Z,1930
2017-08-28T08:35:08.779Z,2110
2017-08-28T08:35:49.353Z,2175
2017-08-28T08:36:29.908Z,2280
2017-08-28T08:37:10.443Z,1860
2017-08-28T08:38:05.782Z,1795
2017-08-28T08:38:46.332Z,1480
2017-08-28T08:39:26.933Z,1330
2017-08-28T08:42:00.103Z,785
2017-08-28T08:42:40.693Z,815
2017-08-28T08:43:21.289Z,1100
2017-08-28T08:44:01.891Z,755
2017-08-28T08:44:42.444Z,775
2017-08-28T08:45:23.008Z,725
2017-08-28T08:46:03.578Z,640
2017-08-28T08:46:44.155Z,635
2017-08-28T08:47:24.719Z,730
2017-08-28T08:48:05.298Z,1020
2017-08-28T08:48:45.874Z,2840
2017-08-28T08:49:26.429Z,1470
2017-08-28T08:50:06.996Z,1665
2017-08-28T08:50:47.566Z,3065
2017-08-28T08:51:28.135Z,2985
2017-08-28T08:52:08.705Z,3005
2017-08-28T08:52:49.277Z,3030
2017-08-28T08:53:29.841Z,2995
2017-08-28T08:54:10.392Z,3050
2017-08-28T08:54:50.929Z,3185
2017-08-28T08:55:31.492Z,3200
2017-08-28T08:56:12.067Z,3290
2017-08-28T08:56:52.617Z,3370
2017-08-28T08:57:33.188Z,3410
2017-08-28T08:58:13.768Z,3465
2017-08-28T08:58:54.335Z,3325
2017-08-28T08:59:34.907Z,3340
2017-08-28T09:00:15.477Z,3375
2017-08-28T09:00:56.022Z,3535
2017-08-28T09:01:36.591Z,3560
2017-08-28T09:02:17.149Z,3500
2017-08-28T09:02:57.712Z,3545
2017-08-28T09:03:38.307Z,3245
2017-08-28T09:04:18.894Z,2960
2017-08-28T09:04:59.461Z,3315
2017-08-28T09:05:40.027Z,3190
2017-08-28T09:06:20.596Z,3255
2017-08-28T09:07:01.182Z,3200
2017-08-28T09:07:41.781Z,3320
2017-08-28T09:08:22.368Z,3515
2017-08-28T09:09:02.939Z,3385
2017-08-28T09:09:43.539Z,1850
2017-08-28T09:10:24.131Z,1985
2017-08-28T09:11:04.717Z,2030
2017-08-28T09:11:45.313Z,1745
2017-08-28T09:12:25.915Z,1745
2017-08-28T09:13:06.490Z,2950
2017-08-28T09:13:47.085Z,1875
2017-08-28T09:14:27.670Z,1720
2017-08-28T09:15:08.258Z,1805
2017-08-28T09:15:48.843Z,1820
2017-08-28T09:16:29.449Z,2425
2017-08-28T09:17:10.023Z,1615
2017-08-28T09:17:50.610Z,1615
2017-08-28T09:18:31.213Z,1990
2017-08-28T09:19:11.791Z,3050
2017-08-28T09:19:52.387Z,2210
2017-08-28T09:20:32.970Z,1920
2017-08-28T09:21:13.589Z,1765
2017-08-28T09:21:54.186Z,1875
2017-08-28T09:22:34.766Z,1760
2017-08-28T09:23:15.353Z,1665
2017-08-28T09:23:55.946Z,2750
2017-08-28T09:24:36.531Z,1865
2017-08-28T09:25:17.127Z,1810
2017-08-28T09:25:57.714Z,3595
2017-08-28T09:26:38.294Z,3045
2017-08-28T09:27:18.866Z,1825
2017-08-28T09:27:59.433Z,1490
2017-08-28T09:28:40.005Z,1440
2017-08-28T09:29:20.594Z,1540
2017-08-28T09:30:01.152Z,1570
2017-08-28T09:30:41.751Z,1640
2017-08-28T09:31:22.331Z,1650
2017-08-28T09:32:02.927Z,1790
2017-08-28T09:32:43.509Z,1770
2017-08-28T09:33:24.105Z,1925
2017-08-28T09:34:04.684Z,2620
2017-08-28T09:34:45.248Z,2075
2017-08-28T09:35:25.814Z,2950
2017-08-28T09:36:06.395Z,1870
2017-08-28T09:36:46.993Z,3190
2017-08-28T09:37:27.577Z,2450
2017-08-28T09:38:08.163Z,1855
2017-08-28T09:38:48.762Z,2115
2017-08-28T09:39:29.349Z,1770
2017-08-28T09:40:09.937Z,1920
2017-08-28T09:40:50.496Z,2450
2017-08-28T09:41:31.089Z,2275
2017-08-28T09:42:11.681Z,3340
2017-08-28T09:44:39.591Z,1440
2017-08-28T09:45:20.165Z,2045
2017-08-28T09:46:00.753Z,1760
2017-08-28T09:46:41.330Z,3900
2017-08-28T09:47:21.930Z,4130
2017-08-28T09:48:02.538Z,3830
2017-08-28T09:48:43.131Z,3555
2017-08-28T09:49:23.715Z,3600
2017-08-28T09:50:04.297Z,3610
2017-08-28T09:50:44.889Z,3415
2017-08-28T09:51:25.494Z,3150
2017-08-28T09:52:06.077Z,3255
2017-08-28T09:52:46.665Z,3490
2017-08-28T09:53:27.441Z,3440
2017-08-28T09:54:08.031Z,3465
2017-08-28T09:54:48.619Z,3475